sim
Sign-in with your pilot id or email,
or register
Callsign
Passwort

Schedule Details

Flight Number: OEC92
Departure: Munich Airport (EDDM) at 1940
Arrival: Hamburg Airport (EDDH) at Time
Route: DCT ANELA DCT LONLI DCT LASGA DCT NARUS DCT ERF DCT SOMIX DCT BIRKA DCT LARET DCT POVEL DCT HLZ DCT AMLUH DCT

Weather Information
Getting current METAR information for EDDM 231450Z 24007KT 9999 FEW043 19/15 Q1009 NOSIG
Getting current METAR information for EDDH 231450Z 23010KT 190V260 CAVOK 23/10 Q1003 NOSIG

Schedule Frequency

Route Map